Time;durP1;ratioP1;P1;durP2;ratioP2;P2;SDS_P1;SDS_P2;PMS_P1;PMS_P2;Temp;Humidity;BMP_temperature;BMP_pressure;BME280_temperature;BME280_humidity;BME280_pressure;Samples;Min_cycle;Max_cycle;Signal;HPM_P1;HPM_P2
2022/10/11 00:01:02;;;;;;;0.00;0.00;;;;;;;;;;5093928;28;20032;-74
2022/10/11 00:03:28;;;;;;;0.00;0.00;;;;;;;;;;5104375;28;20478;-73
2022/10/11 00:05:55;;;;;;;0.00;0.00;;;;;;;;;;5088482;27;20118;-72
2022/10/11 00:08:21;;;;;;;0.20;0.20;;;;;;;;;;5106025;28;20040;-73
2022/10/11 00:10:58;;;;;;;0.00;0.00;;;;;;;;;;5111402;28;20081;-72
2022/10/11 00:13:24;;;;;;;0.20;0.20;;;;;;;;;;5110602;28;20023;-73
2022/10/11 00:15:51;;;;;;;0.00;0.00;;;;;;;;;;5112236;28;20024;-74
2022/10/11 00:18:21;;;;;;;0.10;0.10;;;;;;;;;;5113210;28;20015;-73
2022/10/11 00:20:47;;;;;;;0.00;0.00;;;;;;;;;;5095392;28;20427;-73
2022/10/11 00:23:13;;;;;;;0.00;0.00;;;;;;;;;;5113119;28;20060;-73
2022/10/11 00:25:40;;;;;;;0.00;0.00;;;;;;;;;;5095175;28;20061;-72
2022/10/11 00:28:06;;;;;;;0.00;0.00;;;;;;;;;;5109904;28;20085;-72
2022/10/11 00:30:32;;;;;;;1.90;1.88;;;;;;;;;;5113107;28;20102;-74
2022/10/11 00:32:59;;;;;;;0.00;0.00;;;;;;;;;;5113165;28;20035;-73
2022/10/11 00:35:26;;;;;;;0.00;0.00;;;;;;;;;;5112063;28;20034;-73
2022/10/11 00:37:52;;;;;;;0.98;0.98;;;;;;;;;;5112806;28;20026;-72
2022/10/11 00:40:19;;;;;;;0.00;0.00;;;;;;;;;;5109637;28;20027;-72
2022/10/11 00:42:46;;;;;;;0.00;0.00;;;;;;;;;;5094474;28;20039;-73
2022/10/11 00:45:27;;;;;;;0.05;0.05;;;;;;;;;;5101986;28;20466;-72
2022/10/11 00:47:55;;;;;;;0.00;0.00;;;;;;;;;;5096553;28;20019;-71
2022/10/11 00:50:22;;;;;;;0.00;0.00;;;;;;;;;;5093507;28;20502;-72
2022/10/11 00:52:57;;;;;;;0.10;0.10;;;;;;;;;;5105811;28;20055;-71
2022/10/11 00:55:25;;;;;;;0.00;0.00;;;;;;;;;;5109312;28;20453;-73
2022/10/11 00:57:52;;;;;;;0.08;0.08;;;;;;;;;;5112903;28;20031;-73
2022/10/11 01:00:19;;;;;;;0.00;0.00;;;;;;;;;;5113243;28;20030;-73
2022/10/11 01:02:46;;;;;;;0.00;0.00;;;;;;;;;;5094917;28;20024;-73
2022/10/11 01:05:14;;;;;;;0.00;0.00;;;;;;;;;;5112302;28;20069;-73
2022/10/11 01:07:41;;;;;;;0.05;0.05;;;;;;;;;;5106611;28;20028;-71
2022/10/11 01:10:07;;;;;;;0.00;0.00;;;;;;;;;;5105869;28;20536;-72
2022/10/11 01:12:34;;;;;;;0.00;0.00;;;;;;;;;;5076592;28;20127;-72
2022/10/11 01:15:09;;;;;;;0.00;0.00;;;;;;;;;;5074604;28;20032;-72
2022/10/11 01:17:36;;;;;;;0.00;0.00;;;;;;;;;;5074539;28;20386;-71
2022/10/11 01:20:08;;;;;;;0.00;0.00;;;;;;;;;;5093450;28;20038;-75
2022/10/11 01:22:47;;;;;;;0.00;0.00;;;;;;;;;;5090235;28;20081;-74
2022/10/11 01:25:13;;;;;;;0.00;0.00;;;;;;;;;;5094742;28;20062;-74
2022/10/11 01:27:49;;;;;;;0.00;0.00;;;;;;;;;;5113043;28;20483;-73
2022/10/11 01:30:15;;;;;;;0.00;0.00;;;;;;;;;;5112877;28;20069;-74
2022/10/11 01:33:00;;;;;;;0.00;0.00;;;;;;;;;;5101676;28;20035;-73
2022/10/11 01:35:49;;;;;;;0.00;0.00;;;;;;;;;;5101544;28;20478;-73
2022/10/11 01:38:29;;;;;;;0.00;0.00;;;;;;;;;;5098729;28;20067;-73
2022/10/11 01:40:58;;;;;;;0.00;0.00;;;;;;;;;;5112726;28;20089;-73
2022/10/11 01:43:25;;;;;;;0.00;0.00;;;;;;;;;;5113036;28;20077;-73
2022/10/11 01:45:54;;;;;;;0.00;0.00;;;;;;;;;;5084951;28;20028;-73
2022/10/11 01:48:21;;;;;;;0.00;0.00;;;;;;;;;;5101664;28;20051;-72
2022/10/11 01:50:49;;;;;;;0.00;0.00;;;;;;;;;;5099948;28;20022;-74
2022/10/11 01:53:21;;;;;;;0.00;0.00;;;;;;;;;;5089381;28;20032;-74
2022/10/11 01:55:55;;;;;;;0.00;0.00;;;;;;;;;;5101374;28;20035;-74
2022/10/11 01:58:24;;;;;;;0.32;0.32;;;;;;;;;;5104783;28;20023;-75
2022/10/11 02:01:14;;;;;;;0.00;0.00;;;;;;;;;;5089698;28;20023;-74
2022/10/11 02:03:54;;;;;;;0.00;0.00;;;;;;;;;;5096628;28;20050;-74
2022/10/11 02:06:28;;;;;;;0.00;0.00;;;;;;;;;;5084911;28;20363;-74
2022/10/11 02:09:09;;;;;;;0.00;0.00;;;;;;;;;;5103428;28;20035;-72
2022/10/11 02:11:36;;;;;;;0.00;0.00;;;;;;;;;;5098193;28;20034;-73
2022/10/11 02:14:11;;;;;;;0.00;0.00;;;;;;;;;;5095558;28;20020;-74
2022/10/11 02:16:44;;;;;;;0.00;0.00;;;;;;;;;;5103390;28;20024;-74
2022/10/11 02:19:12;;;;;;;0.00;0.00;;;;;;;;;;5095802;27;20102;-73
2022/10/11 02:21:40;;;;;;;0.00;0.00;;;;;;;;;;5119670;27;20019;-73
2022/10/11 02:24:09;;;;;;;0.30;0.30;;;;;;;;;;5116769;28;20080;-73
2022/10/11 02:26:36;;;;;;;0.00;0.00;;;;;;;;;;5113339;28;20020;-74
2022/10/11 02:29:04;;;;;;;0.00;0.00;;;;;;;;;;5107451;28;20023;-73
2022/10/11 02:31:33;;;;;;;0.25;0.25;;;;;;;;;;5091203;28;20024;-72
2022/10/11 02:34:07;;;;;;;0.00;0.00;;;;;;;;;;5115145;28;20118;-71
2022/10/11 02:36:40;;;;;;;0.00;0.00;;;;;;;;;;5110134;28;20489;-71
2022/10/11 02:39:11;;;;;;;0.00;0.00;;;;;;;;;;5107650;28;20020;-72
2022/10/11 02:41:39;;;;;;;0.00;0.00;;;;;;;;;;5101341;28;20482;-72
2022/10/11 02:44:21;;;;;;;0.00;0.00;;;;;;;;;;5104862;27;20027;-72
2022/10/11 02:46:48;;;;;;;3.53;2.92;;;;;;;;;;5088932;28;20039;-70
2022/10/11 02:49:16;;;;;;;0.00;0.00;;;;;;;;;;5101675;28;20034;-71
2022/10/11 02:51:42;;;;;;;3.00;2.83;;;;;;;;;;5103666;27;20405;-71
2022/10/11 02:54:08;;;;;;;0.05;0.05;;;;;;;;;;5101162;27;20492;-71
2022/10/11 02:56:35;;;;;;;0.43;0.43;;;;;;;;;;5105301;28;20062;-71
2022/10/11 02:59:01;;;;;;;0.25;0.25;;;;;;;;;;5102659;28;20016;-70
2022/10/11 03:01:27;;;;;;;0.10;0.10;;;;;;;;;;5101446;28;20031;-70
2022/10/11 03:03:54;;;;;;;0.13;0.13;;;;;;;;;;5097569;28;20031;-70
2022/10/11 03:06:20;;;;;;;1.75;1.65;;;;;;;;;;5081380;28;20059;-71
2022/10/11 03:08:47;;;;;;;0.00;0.00;;;;;;;;;;5087422;28;20031;-70
2022/10/11 03:11:13;;;;;;;0.00;0.00;;;;;;;;;;5099946;27;20042;-69
2022/10/11 03:13:39;;;;;;;0.55;0.55;;;;;;;;;;5078977;28;20074;-71
2022/10/11 03:16:06;;;;;;;0.00;0.00;;;;;;;;;;5087563;28;20535;-71
2022/10/11 03:18:32;;;;;;;4.78;4.50;;;;;;;;;;5081914;28;20032;-72
2022/10/11 03:20:58;;;;;;;0.00;0.00;;;;;;;;;;5083039;28;20020;-70
2022/10/11 03:23:25;;;;;;;0.00;0.00;;;;;;;;;;5106147;28;20031;-73
2022/10/11 03:25:51;;;;;;;0.00;0.00;;;;;;;;;;5083613;28;20047;-72
2022/10/11 03:28:18;;;;;;;0.00;0.00;;;;;;;;;;5101263;27;20050;-72
2022/10/11 03:30:47;;;;;;;0.00;0.00;;;;;;;;;;5106454;28;20184;-73
2022/10/11 03:33:13;;;;;;;0.70;0.70;;;;;;;;;;5097157;28;20058;-74
2022/10/11 03:35:39;;;;;;;0.15;0.15;;;;;;;;;;5104703;28;20020;-73
2022/10/11 03:38:06;;;;;;;0.00;0.00;;;;;;;;;;5102808;27;20023;-72
2022/10/11 03:40:32;;;;;;;0.00;0.00;;;;;;;;;;5081862;28;20047;-71
2022/10/11 03:42:58;;;;;;;0.00;0.00;;;;;;;;;;5103613;28;20055;-74
2022/10/11 03:45:25;;;;;;;0.52;0.52;;;;;;;;;;5099290;28;20034;-73
2022/10/11 03:47:51;;;;;;;0.00;0.00;;;;;;;;;;5088345;28;20020;-72
2022/10/11 03:50:17;;;;;;;0.00;0.00;;;;;;;;;;5100922;28;20395;-72
2022/10/11 03:52:44;;;;;;;2.08;1.67;;;;;;;;;;5101714;28;20461;-72
2022/10/11 03:55:10;;;;;;;0.20;0.20;;;;;;;;;;5083491;28;20048;-72
2022/10/11 03:57:37;;;;;;;0.00;0.00;;;;;;;;;;5097843;28;20052;-72
2022/10/11 04:00:04;;;;;;;0.00;0.00;;;;;;;;;;5076642;28;20028;-72
2022/10/11 04:02:30;;;;;;;0.00;0.00;;;;;;;;;;5102517;27;20484;-73
2022/10/11 04:04:56;;;;;;;0.00;0.00;;;;;;;;;;5106066;28;20054;-73
2022/10/11 04:07:23;;;;;;;0.00;0.00;;;;;;;;;;5084212;28;20046;-75
2022/10/11 04:09:49;;;;;;;0.10;0.10;;;;;;;;;;5103474;27;20024;-74
2022/10/11 04:12:16;;;;;;;0.52;0.52;;;;;;;;;;5102038;28;20035;-74
2022/10/11 04:14:42;;;;;;;1.83;1.73;;;;;;;;;;5089586;28;20106;-74
2022/10/11 04:17:08;;;;;;;0.30;0.30;;;;;;;;;;5095949;28;20051;-73
2022/10/11 04:19:36;;;;;;;15.63;14.70;;;;;;;;;;5077747;28;20051;-74
2022/10/11 04:22:05;;;;;;;6.68;3.78;;;;;;;;;;5084338;27;20031;-72
2022/10/11 04:24:31;;;;;;;0.00;0.00;;;;;;;;;;5096414;28;20024;-73
2022/10/11 04:26:58;;;;;;;1.77;1.75;;;;;;;;;;5102376;28;20535;-72
2022/10/11 04:29:24;;;;;;;2.17;2.08;;;;;;;;;;5102898;28;20510;-73
2022/10/11 04:31:50;;;;;;;0.00;0.00;;;;;;;;;;5107298;28;20027;-73
2022/10/11 04:34:17;;;;;;;1.17;1.15;;;;;;;;;;5105296;28;20027;-72
2022/10/11 04:36:43;;;;;;;2.33;1.55;;;;;;;;;;5106745;28;20031;-73
2022/10/11 04:39:10;;;;;;;1.85;1.33;;;;;;;;;;5099710;28;20020;-75
2022/10/11 04:41:36;;;;;;;7.15;2.72;;;;;;;;;;5107145;28;20180;-76
2022/10/11 04:44:03;;;;;;;0.00;0.00;;;;;;;;;;5102274;28;20023;-72
2022/10/11 04:46:29;;;;;;;0.68;0.63;;;;;;;;;;5106241;28;20027;-73
2022/10/11 04:48:56;;;;;;;0.03;0.03;;;;;;;;;;5101910;27;20119;-74
2022/10/11 04:51:23;;;;;;;0.00;0.00;;;;;;;;;;5102848;28;20494;-75
2022/10/11 04:53:49;;;;;;;0.20;0.20;;;;;;;;;;5086917;28;20024;-74
2022/10/11 04:56:17;;;;;;;6.05;3.60;;;;;;;;;;5105592;28;20023;-73
2022/10/11 04:58:44;;;;;;;0.00;0.00;;;;;;;;;;5082903;28;20023;-75
2022/10/11 05:01:11;;;;;;;0.00;0.00;;;;;;;;;;5084327;28;20177;-75
2022/10/11 05:03:37;;;;;;;0.00;0.00;;;;;;;;;;5094092;28;20028;-74
2022/10/11 05:06:04;;;;;;;0.65;0.65;;;;;;;;;;5122274;28;20050;-74
2022/10/11 05:08:30;;;;;;;0.73;0.73;;;;;;;;;;5122552;27;20031;-74
2022/10/11 05:11:01;;;;;;;1.10;1.10;;;;;;;;;;5108548;28;20069;-75
2022/10/11 05:13:28;;;;;;;0.05;0.05;;;;;;;;;;5106100;28;20318;-74
2022/10/11 05:15:54;;;;;;;6.03;4.47;;;;;;;;;;5100904;28;20073;-75
2022/10/11 05:18:21;;;;;;;0.00;0.00;;;;;;;;;;5107464;28;20070;-75
2022/10/11 05:20:47;;;;;;;0.00;0.00;;;;;;;;;;5085084;28;20493;-74
2022/10/11 05:23:14;;;;;;;31.55;4.88;;;;;;;;;;5093206;28;20032;-74
2022/10/11 05:25:40;;;;;;;0.10;0.10;;;;;;;;;;5081105;28;20587;-74
2022/10/11 05:28:06;;;;;;;1.45;1.35;;;;;;;;;;5097094;28;20027;-73
2022/10/11 05:30:33;;;;;;;1.88;1.77;;;;;;;;;;5099749;28;20084;-73
2022/10/11 05:32:59;;;;;;;0.35;0.35;;;;;;;;;;5100015;28;20177;-74
2022/10/11 05:35:29;;;;;;;0.20;0.20;;;;;;;;;;5077938;28;20074;-75
2022/10/11 05:37:55;;;;;;;4.82;2.88;;;;;;;;;;5083638;28;20118;-77
2022/10/11 05:40:21;;;;;;;1.55;0.47;;;;;;;;;;5097087;28;20055;-76
2022/10/11 05:42:48;;;;;;;0.00;0.00;;;;;;;;;;5086897;28;20051;-75
2022/10/11 05:45:14;;;;;;;0.25;0.25;;;;;;;;;;5099348;28;20036;-75
2022/10/11 05:47:40;;;;;;;0.03;0.03;;;;;;;;;;5100153;28;20112;-76
2022/10/11 05:50:07;;;;;;;1.10;0.73;;;;;;;;;;5108556;28;20024;-75
2022/10/11 05:52:33;;;;;;;0.05;0.05;;;;;;;;;;5080206;27;20119;-73
2022/10/11 05:54:59;;;;;;;0.38;0.38;;;;;;;;;;5101650;28;20031;-74
2022/10/11 05:57:26;;;;;;;0.10;0.00;;;;;;;;;;5104821;27;20110;-74
2022/10/11 05:59:52;;;;;;;0.00;0.00;;;;;;;;;;5099582;27;20027;-72
2022/10/11 06:02:18;;;;;;;1.70;0.22;;;;;;;;;;5101596;27;20027;-73
2022/10/11 06:04:45;;;;;;;2.40;1.50;;;;;;;;;;5083971;28;21072;-73
2022/10/11 06:07:11;;;;;;;0.00;0.00;;;;;;;;;;5081250;28;20111;-72
2022/10/11 06:09:38;;;;;;;4.68;0.70;;;;;;;;;;5109516;28;20092;-73
2022/10/11 06:12:07;;;;;;;1.48;1.38;;;;;;;;;;5095978;28;20487;-76
2022/10/11 06:14:33;;;;;;;0.20;0.00;;;;;;;;;;5100045;27;20076;-73
2022/10/11 06:17:00;;;;;;;0.00;0.00;;;;;;;;;;5088075;28;20031;-73
2022/10/11 06:19:26;;;;;;;0.38;0.38;;;;;;;;;;5092091;28;20047;-74
2022/10/11 06:21:52;;;;;;;0.10;0.10;;;;;;;;;;5095811;28;20042;-72
2022/10/11 06:24:19;;;;;;;0.00;0.00;;;;;;;;;;5097291;27;20679;-72
2022/10/11 06:26:45;;;;;;;0.00;0.00;;;;;;;;;;5100670;27;20508;-73
2022/10/11 06:29:11;;;;;;;0.50;0.30;;;;;;;;;;5103527;27;20137;-74
2022/10/11 06:31:38;;;;;;;8.55;0.70;;;;;;;;;;5081090;28;20028;-73
2022/10/11 06:34:04;;;;;;;0.00;0.00;;;;;;;;;;5085442;27;20032;-73
2022/10/11 06:36:30;;;;;;;0.00;0.00;;;;;;;;;;5098355;27;20028;-72
2022/10/11 06:38:59;;;;;;;1.08;1.08;;;;;;;;;;5098210;28;20032;-72
2022/10/11 06:41:27;;;;;;;0.82;0.82;;;;;;;;;;5103285;27;20082;-73
2022/10/11 06:43:53;;;;;;;0.55;0.55;;;;;;;;;;5102499;28;20140;-74
2022/10/11 06:46:21;;;;;;;0.32;0.32;;;;;;;;;;5083542;28;20020;-72
2022/10/11 06:48:48;;;;;;;0.00;0.00;;;;;;;;;;5101915;28;20019;-74
2022/10/11 06:51:16;;;;;;;0.20;0.20;;;;;;;;;;5088885;28;20086;-73
2022/10/11 06:53:42;;;;;;;0.47;0.47;;;;;;;;;;5100802;28;20139;-77
2022/10/11 06:56:10;;;;;;;0.13;0.13;;;;;;;;;;5102067;28;20053;-75
2022/10/11 06:58:37;;;;;;;0.10;0.10;;;;;;;;;;5104860;28;20021;-75
2022/10/11 07:01:05;;;;;;;0.47;0.43;;;;;;;;;;5084814;28;20025;-76
2022/10/11 07:03:31;;;;;;;0.00;0.00;;;;;;;;;;5082183;28;20035;-76
2022/10/11 07:06:02;;;;;;;0.00;0.00;;;;;;;;;;5101473;28;20024;-77
2022/10/11 07:08:28;;;;;;;1.23;0.80;;;;;;;;;;5091079;28;20028;-79
2022/10/11 07:10:59;;;;;;;30.50;28.05;;;;;;;;;;5096329;28;20028;-75
2022/10/11 07:13:25;;;;;;;2.08;0.93;;;;;;;;;;5106428;28;20023;-78
2022/10/11 07:15:52;;;;;;;0.10;0.10;;;;;;;;;;5101662;27;20028;-77
2022/10/11 07:18:18;;;;;;;5.05;4.80;;;;;;;;;;5099014;28;20019;-76
2022/10/11 07:20:45;;;;;;;14.80;4.30;;;;;;;;;;5089548;28;20469;-74
2022/10/11 07:23:11;;;;;;;0.22;0.22;;;;;;;;;;5112125;28;20359;-72
2022/10/11 07:25:38;;;;;;;0.15;0.15;;;;;;;;;;5097647;28;20463;-72
2022/10/11 07:28:04;;;;;;;0.03;0.03;;;;;;;;;;5095098;28;20020;-73
2022/10/11 07:30:31;;;;;;;0.00;0.00;;;;;;;;;;5095795;28;20024;-75
2022/10/11 07:32:57;;;;;;;0.00;0.00;;;;;;;;;;5083474;28;20042;-72
2022/10/11 07:35:24;;;;;;;0.93;0.55;;;;;;;;;;5102308;28;20489;-74
2022/10/11 07:37:50;;;;;;;0.68;0.68;;;;;;;;;;5102594;28;20036;-73
2022/10/11 07:40:16;;;;;;;14.90;1.83;;;;;;;;;;5105097;27;20055;-73
2022/10/11 07:42:43;;;;;;;0.35;0.35;;;;;;;;;;5096700;28;20508;-72
2022/10/11 07:45:09;;;;;;;0.00;0.00;;;;;;;;;;5095163;28;20050;-72
2022/10/11 07:47:35;;;;;;;0.10;0.10;;;;;;;;;;5105125;27;20039;-73
2022/10/11 07:50:02;;;;;;;0.90;0.90;;;;;;;;;;5100255;28;20046;-74
2022/10/11 07:52:28;;;;;;;1.35;1.35;;;;;;;;;;5098833;28;20035;-78
2022/10/11 07:54:54;;;;;;;0.28;0.28;;;;;;;;;;5110409;28;20021;-73
2022/10/11 07:57:24;;;;;;;1.35;1.25;;;;;;;;;;5092028;28;20201;-72
2022/10/11 07:59:50;;;;;;;0.22;0.22;;;;;;;;;;5088061;28;20024;-72
2022/10/11 08:02:17;;;;;;;0.10;0.10;;;;;;;;;;5105706;27;20058;-72
2022/10/11 08:04:43;;;;;;;0.00;0.00;;;;;;;;;;5093411;28;20393;-72
2022/10/11 08:07:09;;;;;;;0.00;0.00;;;;;;;;;;5104079;27;20023;-72
2022/10/11 08:09:45;;;;;;;0.00;0.00;;;;;;;;;;5099929;28;20036;-73
2022/10/11 08:12:11;;;;;;;0.52;0.52;;;;;;;;;;5083487;28;20028;-74
2022/10/11 08:14:40;;;;;;;0.55;0.20;;;;;;;;;;5093968;28;20023;-73
2022/10/11 08:17:07;;;;;;;0.00;0.00;;;;;;;;;;5095582;28;20039;-73
2022/10/11 08:19:33;;;;;;;8.77;1.58;;;;;;;;;;5105707;27;20027;-72
2022/10/11 08:21:59;;;;;;;0.13;0.13;;;;;;;;;;5082766;28;20024;-73
2022/10/11 08:24:25;;;;;;;0.52;0.35;;;;;;;;;;5096588;27;20110;-74
2022/10/11 08:26:55;;;;;;;0.00;0.00;;;;;;;;;;5102251;27;20107;-75
2022/10/11 08:29:21;;;;;;;0.75;0.75;;;;;;;;;;5101730;28;20154;-75
2022/10/11 08:31:48;;;;;;;1.08;0.38;;;;;;;;;;5102828;28;20024;-73
2022/10/11 08:34:17;;;;;;;0.20;0.20;;;;;;;;;;5088752;28;20092;-72
2022/10/11 08:36:44;;;;;;;0.00;0.00;;;;;;;;;;5102230;27;20047;-74
2022/10/11 08:39:10;;;;;;;0.43;0.25;;;;;;;;;;5094061;28;20093;-76
2022/10/11 08:41:36;;;;;;;0.35;0.35;;;;;;;;;;5070870;28;20040;-74
2022/10/11 08:44:12;;;;;;;0.00;0.00;;;;;;;;;;5095504;28;20103;-72
2022/10/11 08:46:39;;;;;;;0.00;0.00;;;;;;;;;;5077276;28;20040;-72
2022/10/11 08:49:08;;;;;;;0.80;0.35;;;;;;;;;;5103054;27;20663;-75
2022/10/11 08:51:47;;;;;;;1.70;0.65;;;;;;;;;;5100927;28;20032;-76
2022/10/11 08:54:35;;;;;;;0.13;0.13;;;;;;;;;;5104314;28;20370;-76
2022/10/11 08:57:03;;;;;;;0.10;0.10;;;;;;;;;;5081572;28;20138;-77
2022/10/11 08:59:38;;;;;;;0.40;0.38;;;;;;;;;;5096734;28;20035;-74
2022/10/11 09:02:27;;;;;;;0.00;0.00;;;;;;;;;;5098344;28;20107;-74
2022/10/11 09:04:55;;;;;;;0.00;0.00;;;;;;;;;;5100975;27;20024;-74
2022/10/11 09:07:32;;;;;;;0.10;0.10;;;;;;;;;;5099225;28;20016;-73
2022/10/11 09:10:07;;;;;;;0.28;0.25;;;;;;;;;;5103248;28;20026;-73
2022/10/11 09:12:33;;;;;;;0.10;0.10;;;;;;;;;;5100776;28;20112;-72
2022/10/11 09:15:10;;;;;;;0.00;0.00;;;;;;;;;;5098242;28;20028;-78
2022/10/11 09:17:42;;;;;;;0.00;0.00;;;;;;;;;;5100147;28;20425;-77
2022/10/11 09:20:27;;;;;;;0.70;0.70;;;;;;;;;;5096995;28;20026;-76
2022/10/11 09:23:13;;;;;;;0.03;0.03;;;;;;;;;;5098762;28;20768;-80
2022/10/11 09:25:52;;;;;;;0.32;0.30;;;;;;;;;;5079496;28;20038;-80
2022/10/11 09:28:37;;;;;;;0.00;0.00;;;;;;;;;;5096945;27;20052;-79
2022/10/11 09:31:03;;;;;;;1.20;0.17;;;;;;;;;;5093699;28;20019;-79
2022/10/11 09:33:48;;;;;;;0.00;0.00;;;;;;;;;;5087519;28;22406;-80
2022/10/11 09:36:30;;;;;;;0.00;0.00;;;;;;;;;;5080557;28;20435;-79
2022/10/11 09:39:07;;;;;;;0.00;0.00;;;;;;;;;;5099134;28;20031;-75
2022/10/11 09:41:45;;;;;;;0.00;0.00;;;;;;;;;;5085818;28;20048;-75
2022/10/11 09:44:22;;;;;;;0.00;0.00;;;;;;;;;;5110336;27;20081;-74
2022/10/11 09:46:49;;;;;;;0.00;0.00;;;;;;;;;;5102160;28;20024;-74
2022/10/11 09:49:16;;;;;;;0.52;0.52;;;;;;;;;;5099449;27;20081;-73
2022/10/11 09:51:44;;;;;;;0.00;0.00;;;;;;;;;;5096138;28;20034;-73
2022/10/11 09:54:10;;;;;;;0.00;0.00;;;;;;;;;;5082022;28;20492;-74
2022/10/11 09:56:44;;;;;;;0.00;0.00;;;;;;;;;;5088937;28;20057;-75
2022/10/11 09:59:29;;;;;;;0.00;0.00;;;;;;;;;;5100404;27;20030;-73
2022/10/11 10:02:14;;;;;;;0.00;0.00;;;;;;;;;;5080358;28;20639;-74
2022/10/11 10:05:03;;;;;;;0.10;0.03;;;;;;;;;;5102802;27;20385;-71
2022/10/11 10:07:30;;;;;;;0.00;0.00;;;;;;;;;;5086888;27;20032;-72
2022/10/11 10:09:57;;;;;;;0.38;0.38;;;;;;;;;;5107391;28;20027;-72
2022/10/11 10:12:26;;;;;;;0.00;0.00;;;;;;;;;;5086627;28;20032;-72
2022/10/11 10:15:05;;;;;;;0.00;0.00;;;;;;;;;;5108745;28;20023;-72
2022/10/11 10:17:31;;;;;;;0.00;0.00;;;;;;;;;;5103310;27;20016;-73
2022/10/11 10:19:59;;;;;;;0.00;0.00;;;;;;;;;;5110203;27;20016;-73
2022/10/11 10:22:33;;;;;;;0.00;0.00;;;;;;;;;;5086916;28;20023;-77
2022/10/11 10:25:01;;;;;;;0.00;0.00;;;;;;;;;;5097471;27;20028;-72
2022/10/11 10:27:29;;;;;;;0.00;0.00;;;;;;;;;;5104111;27;20385;-71
2022/10/11 10:29:59;;;;;;;0.47;0.10;;;;;;;;;;5085323;28;20047;-71
2022/10/11 10:32:29;;;;;;;0.00;0.00;;;;;;;;;;5101696;28;20028;-71
2022/10/11 10:35:06;;;;;;;0.00;0.00;;;;;;;;;;5113753;27;20066;-72
2022/10/11 10:37:34;;;;;;;0.00;0.00;;;;;;;;;;5109553;27;20019;-72
2022/10/11 10:40:09;;;;;;;0.00;0.00;;;;;;;;;;5091074;28;20630;-72
2022/10/11 10:42:36;;;;;;;0.00;0.00;;;;;;;;;;5104227;28;20097;-70
2022/10/11 10:45:02;;;;;;;1.17;1.17;;;;;;;;;;5087502;28;20028;-72
2022/10/11 10:47:37;;;;;;;0.00;0.00;;;;;;;;;;5077306;28;20115;-73
2022/10/11 10:50:12;;;;;;;0.00;0.00;;;;;;;;;;5108273;27;20417;-70
2022/10/11 10:52:54;;;;;;;0.00;0.00;;;;;;;;;;5110085;27;20059;-71
2022/10/11 10:55:20;;;;;;;0.00;0.00;;;;;;;;;;5122980;28;20028;-73
2022/10/11 10:58:02;;;;;;;0.10;0.08;;;;;;;;;;5127329;28;20015;-73
2022/10/11 11:00:30;;;;;;;0.00;0.00;;;;;;;;;;5114211;28;20512;-71
2022/10/11 11:03:06;;;;;;;0.00;0.00;;;;;;;;;;5087758;28;20023;-73
2022/10/11 11:05:40;;;;;;;0.00;0.00;;;;;;;;;;5103331;28;20028;-72
2022/10/11 11:08:15;;;;;;;0.03;0.03;;;;;;;;;;5103401;28;20032;-73
2022/10/11 11:10:49;;;;;;;0.00;0.00;;;;;;;;;;5088515;28;20054;-72
2022/10/11 11:13:15;;;;;;;0.00;0.00;;;;;;;;;;5098538;27;20020;-74
2022/10/11 11:15:59;;;;;;;0.00;0.00;;;;;;;;;;5106923;27;20046;-74
2022/10/11 11:18:28;;;;;;;0.00;0.00;;;;;;;;;;5081320;28;20028;-73
2022/10/11 11:21:03;;;;;;;0.00;0.00;;;;;;;;;;5104557;28;20027;-72
2022/10/11 11:23:29;;;;;;;0.00;0.00;;;;;;;;;;5105074;27;20030;-74
2022/10/11 11:26:13;;;;;;;0.00;0.00;;;;;;;;;;5101179;27;20059;-74
2022/10/11 11:28:47;;;;;;;0.00;0.00;;;;;;;;;;5105144;27;21353;-73
2022/10/11 11:31:16;;;;;;;0.00;0.00;;;;;;;;;;5109417;27;20016;-75
2022/10/11 11:33:49;;;;;;;0.00;0.00;;;;;;;;;;5109011;28;20031;-74
2022/10/11 11:36:18;;;;;;;0.00;0.00;;;;;;;;;;5096288;27;20520;-75
2022/10/11 11:38:57;;;;;;;0.00;0.00;;;;;;;;;;5099789;27;20019;-73
2022/10/11 11:41:26;;;;;;;0.60;0.60;;;;;;;;;;5105964;28;20050;-74
2022/10/11 11:43:52;;;;;;;0.00;0.00;;;;;;;;;;5100152;27;20712;-73
2022/10/11 11:46:39;;;;;;;0.00;0.00;;;;;;;;;;5111600;28;20024;-73
2022/10/11 11:49:25;;;;;;;0.00;0.00;;;;;;;;;;5112959;28;20052;-73
2022/10/11 11:51:52;;;;;;;0.00;0.00;;;;;;;;;;5087147;27;20043;-73
2022/10/11 11:54:32;;;;;;;0.00;0.00;;;;;;;;;;5106020;27;20059;-74
2022/10/11 11:56:58;;;;;;;0.00;0.00;;;;;;;;;;5096338;27;20026;-73
2022/10/11 11:59:25;;;;;;;0.00;0.00;;;;;;;;;;5100329;27;20016;-72
2022/10/11 12:02:11;;;;;;;0.00;0.00;;;;;;;;;;5097151;28;20038;-72
2022/10/11 12:04:39;;;;;;;0.05;0.05;;;;;;;;;;5079898;28;20115;-70
2022/10/11 12:07:08;;;;;;;0.00;0.00;;;;;;;;;;5096793;28;20051;-72
2022/10/11 12:09:36;;;;;;;0.00;0.00;;;;;;;;;;5104199;27;20475;-72
2022/10/11 12:12:07;;;;;;;0.30;0.30;;;;;;;;;;5104094;27;20027;-72
2022/10/11 12:14:34;;;;;;;0.00;0.00;;;;;;;;;;5097407;28;20032;-73
2022/10/11 12:17:07;;;;;;;0.05;0.05;;;;;;;;;;5102765;28;20070;-75
2022/10/11 12:19:35;;;;;;;0.00;0.00;;;;;;;;;;5089396;28;20020;-73
2022/10/11 12:22:24;;;;;;;0.00;0.00;;;;;;;;;;5106948;27;20015;-75
2022/10/11 12:24:57;;;;;;;0.00;0.00;;;;;;;;;;5084404;27;20041;-74
2022/10/11 12:27:36;;;;;;;0.00;0.00;;;;;;;;;;5108489;27;20055;-74
2022/10/11 12:30:02;;;;;;;0.00;0.00;;;;;;;;;;5102532;28;20028;-74
2022/10/11 12:32:28;;;;;;;0.00;0.00;;;;;;;;;;5104032;28;20036;-74
2022/10/11 12:35:13;;;;;;;0.00;0.00;;;;;;;;;;5099682;28;20032;-74
2022/10/11 12:37:39;;;;;;;0.00;0.00;;;;;;;;;;5107074;28;20023;-74
2022/10/11 12:40:25;;;;;;;0.00;0.00;;;;;;;;;;5113285;28;20024;-74
2022/10/11 12:43:13;;;;;;;0.00;0.00;;;;;;;;;;5111600;27;20086;-74
2022/10/11 12:45:40;;;;;;;0.00;0.00;;;;;;;;;;5093547;28;20081;-74
2022/10/11 12:48:06;;;;;;;0.00;0.00;;;;;;;;;;5081940;28;20477;-74
2022/10/11 12:50:44;;;;;;;0.00;0.00;;;;;;;;;;5093161;28;20024;-74
2022/10/11 12:53:23;;;;;;;0.00;0.00;;;;;;;;;;5092669;28;20031;-74
2022/10/11 12:55:49;;;;;;;0.55;0.55;;;;;;;;;;5090806;28;20038;-74
2022/10/11 12:58:16;;;;;;;1.85;1.75;;;;;;;;;;5104678;27;20084;-75
2022/10/11 13:00:51;;;;;;;0.00;0.00;;;;;;;;;;5104985;28;20015;-73
2022/10/11 13:03:23;;;;;;;0.00;0.00;;;;;;;;;;5114287;28;20020;-79
2022/10/11 13:05:49;;;;;;;0.00;0.00;;;;;;;;;;5092623;28;20050;-79
2022/10/11 13:08:22;;;;;;;3.50;3.35;;;;;;;;;;5102538;28;20024;-79
2022/10/11 13:10:49;;;;;;;0.00;0.00;;;;;;;;;;5112684;28;20020;-79
2022/10/11 13:13:21;;;;;;;0.00;0.00;;;;;;;;;;5075577;28;20020;-79
2022/10/11 13:15:48;;;;;;;0.08;0.08;;;;;;;;;;5098246;28;20027;-79
2022/10/11 13:18:16;;;;;;;0.10;0.10;;;;;;;;;;5107146;28;20278;-79
2022/10/11 13:20:42;;;;;;;0.55;0.55;;;;;;;;;;5109468;28;20363;-79
2022/10/11 13:23:28;;;;;;;0.43;0.43;;;;;;;;;;5102118;28;20508;-78
2022/10/11 13:25:55;;;;;;;0.00;0.00;;;;;;;;;;5108818;28;20050;-79
2022/10/11 13:28:22;;;;;;;0.00;0.00;;;;;;;;;;5101760;28;20024;-78
2022/10/11 13:30:52;;;;;;;0.00;0.00;;;;;;;;;;5094752;28;20020;-78
2022/10/11 13:33:19;;;;;;;1.10;1.10;;;;;;;;;;5078029;28;20146;-78
2022/10/11 13:35:46;;;;;;;1.08;0.85;;;;;;;;;;5102506;28;20039;-78
2022/10/11 13:38:23;;;;;;;0.00;0.00;;;;;;;;;;5106921;28;20164;-77
2022/10/11 13:40:50;;;;;;;1.27;1.17;;;;;;;;;;5093874;28;20024;-79
2022/10/11 13:43:19;;;;;;;0.00;0.00;;;;;;;;;;5087740;28;20172;-78
2022/10/11 13:45:45;;;;;;;0.00;0.00;;;;;;;;;;5102923;28;20027;-79
2022/10/11 13:48:13;;;;;;;0.00;0.00;;;;;;;;;;5114088;28;20069;-79
2022/10/11 13:50:44;;;;;;;0.00;0.00;;;;;;;;;;5078930;28;20409;-80
2022/10/11 13:53:11;;;;;;;0.00;0.00;;;;;;;;;;5093004;28;20020;-79
2022/10/11 13:55:46;;;;;;;0.00;0.00;;;;;;;;;;5090448;28;20514;-79
2022/10/11 13:58:33;;;;;;;0.00;0.00;;;;;;;;;;5088495;28;20032;-77
2022/10/11 14:01:04;;;;;;;0.40;0.40;;;;;;;;;;5105699;28;20492;-77
2022/10/11 14:03:36;;;;;;;0.00;0.00;;;;;;;;;;5104883;28;20477;-79
2022/10/11 14:06:02;;;;;;;0.93;0.47;;;;;;;;;;5085140;28;20023;-80
2022/10/11 14:08:47;;;;;;;0.20;0.20;;;;;;;;;;5098248;28;20020;-80
2022/10/11 14:11:14;;;;;;;0.35;0.35;;;;;;;;;;5108440;28;20531;-82
2022/10/11 14:13:48;;;;;;;0.00;0.00;;;;;;;;;;5124588;27;20019;-79
2022/10/11 14:16:18;;;;;;;3.03;2.33;;;;;;;;;;5119427;27;20444;-79
2022/10/11 14:18:50;;;;;;;1.20;0.85;;;;;;;;;;5124065;27;20027;-78
2022/10/11 14:21:23;;;;;;;1.25;1.02;;;;;;;;;;5099949;27;20024;-79
2022/10/11 14:23:53;;;;;;;3.83;3.63;;;;;;;;;;5118931;27;20031;-80
2022/10/11 14:26:20;;;;;;;3.30;2.75;;;;;;;;;;5137224;27;20023;-80
2022/10/11 14:28:52;;;;;;;0.00;0.00;;;;;;;;;;5103705;28;20119;-79
2022/10/11 14:31:18;;;;;;;9.48;3.38;;;;;;;;;;5096337;28;20050;-79
2022/10/11 14:33:45;;;;;;;0.00;0.00;;;;;;;;;;5089185;27;20038;-79
2022/10/11 14:36:11;;;;;;;1.88;1.85;;;;;;;;;;5109382;27;20020;-80
2022/10/11 14:38:37;;;;;;;13.05;10.77;;;;;;;;;;5109738;28;20036;-79
2022/10/11 14:41:04;;;;;;;0.10;0.10;;;;;;;;;;5113643;27;20486;-79
2022/10/11 14:43:30;;;;;;;2.30;2.10;;;;;;;;;;5092100;28;20451;-79
2022/10/11 14:45:56;;;;;;;0.00;0.00;;;;;;;;;;5114885;27;20070;-79
2022/10/11 14:48:23;;;;;;;1.88;1.75;;;;;;;;;;5114977;27;20077;-78
2022/10/11 14:50:56;;;;;;;1.65;1.15;;;;;;;;;;5112773;28;20035;-79
2022/10/11 14:53:22;;;;;;;0.00;0.00;;;;;;;;;;5085752;28;20038;-78
2022/10/11 14:55:49;;;;;;;0.00;0.00;;;;;;;;;;5083845;28;20432;-79
2022/10/11 14:58:16;;;;;;;0.00;0.00;;;;;;;;;;5106116;28;20027;-78